Houston, Texas
Current Conditions -  °F | °C
As of 5:35 PM on Wednesday 22 Oct 2014 (Local Time) from KMCJ Reporting Station
Few Clouds Few Clouds  
Wind Chill: 79°   Ceiling: Unl
Heat Index: 79°   Visibility: 10mi
Dew Point: 55°   Wind: 0mph
Humidity: 44%   Direction: NA
Pressure: 30"   Gusts: NA
Location:  29.76°N, 95.37°W
Report Text: KMCJ 222235Z AUTO 00000KT 10SM FEW049 26/13 A3000 RMK AO1
Loading
Personal Weather Stations






























Interactive Weather Map
Tropical Storm Tracking
New forecast layout! Learn more

10-Day Weather Forecast

Advertisements
Track Severe Weather on mobile